Time;durP1;ratioP1;P1;durP2;ratioP2;P2;SDS_P1;SDS_P2;PMS_P1;PMS_P2;Temp;Humidity;BMP_temperature;BMP_pressure;BME280_temperature;BME280_humidity;BME280_pressure;Samples;Min_cycle;Max_cycle;Signal;HPM_P1;HPM_P2
2021/10/28 00:12:19;;;;;;;24.60;20.20;;;9.40;99.90;;;;;;5047292;28;20851;-62
2021/10/28 00:14:52;;;;;;;28.53;21.17;;;9.40;99.90;;;;;;5057412;28;20448;-63
2021/10/28 00:17:27;;;;;;;26.53;20.97;;;9.40;99.90;;;;;;5052146;28;20455;-63
2021/10/28 00:19:54;;;;;;;23.60;16.90;;;9.40;99.90;;;;;;5036832;28;20452;-63
2021/10/28 00:22:22;;;;;;;22.40;17.10;;;9.40;99.90;;;;;;5036902;28;20453;-63
2021/10/28 00:24:49;;;;;;;25.77;16.57;;;9.40;99.90;;;;;;5036491;28;20448;-62
2021/10/28 00:27:17;;;;;;;26.20;21.23;;;9.40;99.90;;;;;;5018946;28;20484;-63
2021/10/28 00:29:43;;;;;;;21.83;18.27;;;9.40;99.90;;;;;;5016246;28;20466;-62
2021/10/28 00:32:10;;;;;;;30.40;19.20;;;9.40;99.90;;;;;;5016697;28;20820;-63
2021/10/28 00:34:38;;;;;;;26.37;20.60;;;9.40;99.90;;;;;;5016959;28;20442;-62
2021/10/28 00:37:05;;;;;;;31.70;21.30;;;9.40;99.90;;;;;;5031881;28;20449;-63
2021/10/28 00:39:32;;;;;;;25.23;20.33;;;9.40;99.90;;;;;;5038121;28;20473;-63
2021/10/28 00:41:59;;;;;;;29.20;18.70;;;9.40;99.90;;;;;;5039995;28;20445;-63
2021/10/28 00:44:26;;;;;;;27.10;17.50;;;9.40;99.90;;;;;;5036972;28;20449;-63
2021/10/28 00:46:53;;;;;;;22.80;19.80;;;9.30;99.90;;;;;;5041391;28;20522;-63
2021/10/28 00:49:20;;;;;;;22.70;17.43;;;9.30;99.90;;;;;;5040715;28;20536;-63
2021/10/28 00:51:48;;;;;;;31.47;21.67;;;9.30;99.90;;;;;;5037966;28;20441;-63
2021/10/28 00:54:21;;;;;;;34.67;22.90;;;9.30;99.90;;;;;;5033830;28;20468;-62
2021/10/28 00:56:48;;;;;;;26.90;20.33;;;9.30;99.90;;;;;;5034923;28;20485;-63
2021/10/28 00:59:15;;;;;;;33.20;24.20;;;9.30;99.90;;;;;;5034618;28;20469;-63
2021/10/28 01:01:42;;;;;;;23.80;19.03;;;9.30;99.90;;;;;;5034992;28;20452;-62
2021/10/28 01:04:09;;;;;;;33.83;23.73;;;9.30;99.90;;;;;;5031050;28;20438;-62
2021/10/28 01:06:37;;;;;;;34.33;22.43;;;9.30;99.90;;;;;;5032802;28;20446;-63
2021/10/28 01:09:07;;;;;;;35.60;24.70;;;9.30;99.90;;;;;;5034066;28;20825;-62
2021/10/28 01:11:33;;;;;;;36.10;23.00;;;9.30;99.90;;;;;;5040367;28;20451;-62
2021/10/28 01:14:00;;;;;;;20.63;17.50;;;9.30;99.90;;;;;;5041665;28;20481;-63
2021/10/28 01:16:28;;;;;;;34.07;23.53;;;9.20;99.90;;;;;;5026064;28;20482;-63
2021/10/28 01:18:55;;;;;;;38.17;26.53;;;9.30;99.90;;;;;;5024987;28;20889;-63
2021/10/28 01:21:24;;;;;;;29.53;19.30;;;9.30;99.90;;;;;;5024633;28;20444;-62
2021/10/28 01:23:50;;;;;;;38.50;25.53;;;9.30;99.90;;;;;;5024466;28;20460;-63
2021/10/28 01:26:19;;;;;;;27.03;20.47;;;9.20;99.90;;;;;;5043505;28;20447;-63
2021/10/28 01:28:55;;;;;;;31.97;21.90;;;9.30;99.90;;;;;;5043106;28;20444;-63
2021/10/28 01:31:23;;;;;;;39.70;25.50;;;9.20;99.90;;;;;;5042903;28;20444;-63
2021/10/28 01:33:52;;;;;;;29.07;19.03;;;9.20;99.90;;;;;;5040956;28;20453;-63
2021/10/28 01:36:19;;;;;;;32.27;21.43;;;9.20;99.90;;;;;;5022622;28;20575;-63
2021/10/28 01:38:47;;;;;;;36.47;22.60;;;9.20;99.90;;;;;;5021256;28;20811;-63
2021/10/28 01:41:14;;;;;;;43.97;24.70;;;9.20;99.90;;;;;;5021536;28;20477;-63
2021/10/28 01:43:42;;;;;;;50.77;29.47;;;9.10;99.90;;;;;;5021287;28;20504;-61
2021/10/28 01:46:09;;;;;;;36.27;22.10;;;9.20;99.90;;;;;;5040629;28;20452;-63
2021/10/28 01:48:39;;;;;;;51.30;28.67;;;9.20;99.90;;;;;;5040641;28;20472;-63
2021/10/28 01:51:06;;;;;;;49.03;27.17;;;9.20;99.90;;;;;;5040808;28;20476;-63
2021/10/28 01:53:36;;;;;;;46.53;27.63;;;9.20;99.90;;;;;;5027589;28;20450;-63
2021/10/28 01:56:05;;;;;;;50.00;27.30;;;9.20;99.90;;;;;;5021764;28;20504;-63
2021/10/28 01:58:31;;;;;;;39.93;26.40;;;9.20;99.90;;;;;;5021431;28;20453;-63
2021/10/28 02:00:58;;;;;;;55.50;30.17;;;9.20;99.90;;;;;;5021971;28;20466;-63
2021/10/28 02:03:26;;;;;;;39.73;22.50;;;9.10;99.90;;;;;;5033129;28;20499;-63
2021/10/28 02:05:53;;;;;;;49.20;27.00;;;9.20;99.90;;;;;;5041863;28;20445;-63
2021/10/28 02:08:20;;;;;;;41.60;27.37;;;9.20;99.90;;;;;;5042427;28;20565;-63
2021/10/28 02:10:47;;;;;;;48.77;25.37;;;9.20;99.90;;;;;;5037859;28;20842;-62
2021/10/28 02:13:15;;;;;;;46.93;28.83;;;9.20;99.90;;;;;;5028816;28;20477;-63
2021/10/28 02:15:42;;;;;;;31.90;21.60;;;9.10;99.90;;;;;;5017741;28;20489;-63
2021/10/28 02:18:10;;;;;;;35.57;21.00;;;9.20;99.90;;;;;;5017245;28;20958;-63
2021/10/28 02:20:38;;;;;;;36.40;20.80;;;9.20;99.90;;;;;;5017082;28;20838;-61
2021/10/28 02:23:05;;;;;;;55.30;26.67;;;9.10;99.90;;;;;;5024056;28;20857;-63
2021/10/28 02:25:32;;;;;;;44.77;28.20;;;9.10;99.90;;;;;;5037157;28;20452;-63
2021/10/28 02:27:59;;;;;;;39.37;22.57;;;9.20;99.90;;;;;;5037212;28;20481;-62
2021/10/28 02:30:28;;;;;;;42.93;23.40;;;9.10;99.90;;;;;;5036987;28;20970;-63
2021/10/28 02:32:55;;;;;;;47.77;28.97;;;9.10;99.90;;;;;;5018367;28;20888;-61
2021/10/28 02:35:21;;;;;;;36.20;21.30;;;9.10;99.90;;;;;;5018890;28;20449;-63
2021/10/28 02:37:48;;;;;;;44.53;28.43;;;9.10;99.90;;;;;;5019476;28;20450;-63
2021/10/28 02:40:15;;;;;;;47.07;29.40;;;9.00;99.90;;;;;;5021998;28;20489;-63
2021/10/28 02:42:42;;;;;;;51.10;31.80;;;9.00;99.90;;;;;;5040541;28;20870;-63
2021/10/28 02:45:10;;;;;;;51.50;30.30;;;9.00;99.90;;;;;;5042684;28;20453;-63
2021/10/28 02:47:39;;;;;;;41.40;22.57;;;9.00;99.90;;;;;;5039900;28;20468;-63
2021/10/28 02:50:06;;;;;;;44.13;22.80;;;8.90;99.90;;;;;;5036916;28;20531;-63
2021/10/28 02:52:34;;;;;;;56.10;33.00;;;9.00;99.90;;;;;;5020909;28;20449;-62
2021/10/28 02:55:00;;;;;;;59.60;30.80;;;8.90;99.90;;;;;;5015321;28;20489;-63
2021/10/28 02:57:27;;;;;;;56.13;30.93;;;8.90;99.90;;;;;;5033476;28;20556;-62
2021/10/28 02:59:54;;;;;;;55.67;31.77;;;8.90;99.90;;;;;;5033839;28;20462;-62
2021/10/28 03:02:21;;;;;;;57.03;32.57;;;8.80;99.90;;;;;;5020059;28;20446;-63
2021/10/28 03:04:49;;;;;;;54.57;32.10;;;8.80;99.90;;;;;;5016146;28;20453;-63
2021/10/28 03:07:15;;;;;;;58.70;32.67;;;8.80;99.90;;;;;;5015521;28;20804;-63
2021/10/28 03:09:42;;;;;;;67.90;34.10;;;8.90;99.90;;;;;;5016592;28;20485;-63
2021/10/28 03:12:09;;;;;;;55.27;29.80;;;8.80;99.90;;;;;;5029743;28;20456;-63
2021/10/28 03:14:40;;;;;;;68.33;36.77;;;8.80;99.90;;;;;;5037664;28;20957;-61
2021/10/28 03:17:22;;;;;;;60.93;31.50;;;8.80;99.90;;;;;;5038348;28;20481;-63
2021/10/28 03:20:09;;;;;;;57.63;30.87;;;8.80;99.90;;;;;;5024080;28;20528;-63
2021/10/28 03:25:36;;;;;;;69.67;34.40;;;8.80;99.90;;;;;;5015571;28;20529;-62
2021/10/28 03:28:03;;;;;;;61.83;32.67;;;8.80;99.90;;;;;;5014456;28;20450;-61
2021/10/28 03:30:30;;;;;;;59.30;30.17;;;8.80;99.90;;;;;;5032997;28;20552;-62
2021/10/28 03:32:59;;;;;;;68.37;33.80;;;8.80;99.90;;;;;;5039941;28;20444;-62
2021/10/28 03:35:27;;;;;;;57.30;30.40;;;8.80;99.90;;;;;;5042140;28;20460;-63
2021/10/28 03:37:56;;;;;;;45.00;24.00;;;8.80;99.90;;;;;;5042278;28;20473;-63
2021/10/28 03:40:45;;;;;;;52.70;27.87;;;8.80;99.90;;;;;;5023117;28;20470;-63
2021/10/28 03:43:30;;;;;;;63.83;32.40;;;8.80;99.90;;;;;;5020821;28;20453;-63
2021/10/28 04:00:12;;;;;;;39.47;21.00;;;8.80;99.90;;;;;;5025865;28;20849;-63
2021/10/28 04:08:36;;;;;;;67.03;34.40;;;8.80;99.90;;;;;;5034278;28;20452;-63
2021/10/28 04:16:50;;;;;;;50.90;23.73;;;8.70;99.90;;;;;;5037444;28;20499;-63
2021/10/28 04:30:15;;;;;;;67.43;33.90;;;8.80;99.90;;;;;;5036875;28;20571;-63
2021/10/28 04:32:42;;;;;;;70.73;34.20;;;8.80;99.90;;;;;;5036226;28;20453;-63
2021/10/28 04:35:10;;;;;;;42.30;23.83;;;8.80;99.90;;;;;;5037185;28;20456;-62
2021/10/28 04:37:38;;;;;;;70.60;31.47;;;8.80;99.90;;;;;;5029943;28;20481;-63
2021/10/28 04:40:08;;;;;;;80.57;29.23;;;8.80;99.90;;;;;;5019895;28;20470;-63
2021/10/28 04:42:35;;;;;;;50.00;24.33;;;8.80;99.90;;;;;;5021765;28;20453;-63
2021/10/28 04:45:03;;;;;;;57.27;24.80;;;8.80;99.90;;;;;;5015251;28;21173;-63
2021/10/28 04:47:29;;;;;;;76.13;30.73;;;8.80;99.90;;;;;;5024612;28;20935;-63
2021/10/28 04:49:56;;;;;;;77.47;35.30;;;8.80;99.90;;;;;;5039011;28;20488;-63
2021/10/28 04:52:23;;;;;;;68.03;33.47;;;8.80;99.90;;;;;;5039233;28;20818;-63
2021/10/28 04:54:50;;;;;;;86.73;36.27;;;8.80;99.90;;;;;;5038950;28;20936;-63
2021/10/28 04:57:18;;;;;;;83.27;34.93;;;8.70;99.90;;;;;;5038039;28;20978;-63
2021/10/28 04:59:45;;;;;;;69.30;31.80;;;8.70;99.90;;;;;;5026877;28;20477;-63
2021/10/28 05:02:12;;;;;;;73.57;32.33;;;8.70;99.90;;;;;;5019664;28;20870;-63
2021/10/28 05:04:39;;;;;;;69.63;33.83;;;8.70;99.90;;;;;;5021037;28;20957;-61
2021/10/28 05:07:06;;;;;;;66.07;31.47;;;8.70;99.90;;;;;;5018302;28;20807;-60
2021/10/28 05:09:33;;;;;;;71.50;33.03;;;8.70;99.90;;;;;;5017497;28;20488;-61
2021/10/28 05:12:00;;;;;;;54.23;26.27;;;8.80;99.90;;;;;;5020626;28;20508;-63
2021/10/28 05:14:29;;;;;;;89.37;36.87;;;8.80;99.90;;;;;;5038043;28;20459;-63
2021/10/28 05:16:58;;;;;;;90.73;36.87;;;8.80;99.90;;;;;;5041784;28;20481;-62
2021/10/28 05:19:25;;;;;;;77.00;36.10;;;8.80;99.90;;;;;;5033304;28;20470;-62
2021/10/28 05:21:52;;;;;;;57.00;27.53;;;8.80;99.90;;;;;;5021180;28;20473;-63
2021/10/28 05:24:19;;;;;;;57.60;27.00;;;8.80;99.90;;;;;;5020339;28;20457;-63
2021/10/28 05:26:45;;;;;;;55.33;26.27;;;8.80;99.90;;;;;;5017442;28;20442;-62
2021/10/28 05:29:12;;;;;;;71.60;35.73;;;8.80;99.90;;;;;;5018122;28;20473;-62
2021/10/28 05:31:40;;;;;;;80.83;34.50;;;8.80;99.90;;;;;;5018964;28;20441;-62
2021/10/28 05:34:07;;;;;;;58.77;28.90;;;8.80;99.90;;;;;;5018114;28;20445;-62
2021/10/28 05:36:34;;;;;;;95.00;37.40;;;8.80;99.90;;;;;;5017413;28;20478;-62
2021/10/28 05:39:00;;;;;;;74.17;34.80;;;8.80;99.90;;;;;;5018054;28;20449;-62
2021/10/28 05:41:28;;;;;;;52.20;26.33;;;8.80;99.90;;;;;;5017660;28;20450;-63
2021/10/28 05:43:54;;;;;;;68.93;33.67;;;8.80;99.90;;;;;;5018142;28;20454;-62
2021/10/28 05:46:21;;;;;;;89.63;36.80;;;8.80;99.90;;;;;;5018103;28;20454;-62
2021/10/28 05:48:49;;;;;;;100.20;40.13;;;8.80;99.90;;;;;;5018333;28;20831;-62
2021/10/28 05:51:17;;;;;;;95.70;42.40;;;8.80;99.90;;;;;;5022123;28;20789;-62
2021/10/28 05:53:44;;;;;;;78.47;36.67;;;8.90;99.90;;;;;;5023731;28;20477;-63
2021/10/28 05:56:11;;;;;;;49.20;27.23;;;8.90;99.90;;;;;;5023486;28;20454;-63
2021/10/28 05:58:38;;;;;;;76.03;35.70;;;8.90;99.90;;;;;;5023146;28;20446;-63
2021/10/28 06:01:05;;;;;;;81.20;36.30;;;8.90;99.90;;;;;;5023406;28;20466;-63
2021/10/28 06:03:32;;;;;;;77.40;34.23;;;8.80;99.90;;;;;;5023809;28;20470;-63
2021/10/28 06:06:00;;;;;;;55.40;28.33;;;8.80;99.90;;;;;;5024420;28;20884;-63
2021/10/28 06:08:27;;;;;;;80.23;39.00;;;8.80;99.90;;;;;;5021499;28;20469;-63
2021/10/28 06:10:53;;;;;;;88.07;42.63;;;8.80;99.90;;;;;;5015873;28;20485;-63
2021/10/28 06:13:22;;;;;;;75.43;34.87;;;8.80;99.90;;;;;;5014156;28;20457;-63
2021/10/28 06:15:48;;;;;;;79.73;38.10;;;8.80;99.90;;;;;;5014095;28;20859;-63
2021/10/28 06:18:37;;;;;;;80.13;40.03;;;8.80;99.90;;;;;;5013611;28;20481;-63
2021/10/28 06:21:06;;;;;;;59.10;30.37;;;8.80;99.90;;;;;;5014120;28;20476;-63
2021/10/28 06:23:34;;;;;;;87.20;42.43;;;8.80;99.90;;;;;;5013906;28;20453;-63
2021/10/28 06:26:02;;;;;;;92.37;41.60;;;8.90;99.90;;;;;;5013835;28;20499;-63
2021/10/28 06:28:28;;;;;;;79.03;33.00;;;8.90;99.90;;;;;;5013639;28;20538;-63
2021/10/28 06:30:55;;;;;;;81.57;38.20;;;8.90;99.90;;;;;;5013670;28;20461;-63
2021/10/28 06:33:24;;;;;;;79.27;41.90;;;8.80;99.90;;;;;;5013773;28;20442;-63
2021/10/28 06:35:52;;;;;;;77.50;40.80;;;8.90;99.90;;;;;;5013687;28;20450;-63
2021/10/28 06:38:21;;;;;;;60.90;28.67;;;8.90;99.90;;;;;;5013395;28;20477;-63
2021/10/28 06:40:47;;;;;;;73.47;33.30;;;8.90;99.90;;;;;;5013525;28;20967;-63
2021/10/28 06:43:14;;;;;;;69.57;37.23;;;8.90;99.90;;;;;;5013715;28;20453;-64
2021/10/28 06:45:41;;;;;;;68.73;33.10;;;9.00;99.90;;;;;;5013648;28;20445;-63
2021/10/28 06:48:07;;;;;;;58.83;29.37;;;9.00;99.90;;;;;;5013524;28;20441;-63
2021/10/28 06:50:40;;;;;;;61.93;30.77;;;9.00;99.90;;;;;;5013302;28;20474;-63
2021/10/28 06:53:11;;;;;;;66.73;35.00;;;9.10;99.90;;;;;;5013787;28;20445;-63
2021/10/28 06:55:46;;;;;;;81.13;38.40;;;9.10;99.90;;;;;;5013414;28;20450;-63
2021/10/28 07:03:41;;;;;;;51.07;27.27;;;9.20;99.90;;;;;;5013344;28;20927;-63
2021/10/28 07:06:11;;;;;;;50.60;27.00;;;9.30;99.90;;;;;;5013152;28;20803;-63
2021/10/28 07:08:41;;;;;;;44.13;27.40;;;9.30;99.90;;;;;;5012036;28;20442;-63
2021/10/28 07:11:12;;;;;;;40.50;25.03;;;9.40;99.90;;;;;;5013068;28;20888;-63
2021/10/28 07:13:42;;;;;;;57.80;29.50;;;9.40;99.90;;;;;;5013263;28;20450;-63
2021/10/28 07:16:24;;;;;;;53.17;31.33;;;9.40;99.90;;;;;;5013231;28;20959;-64
2021/10/28 07:18:56;;;;;;;44.70;23.07;;;9.40;99.90;;;;;;5012731;28;20489;-64
2021/10/28 07:32:50;;;;;;;40.87;25.27;;;9.70;99.90;;;;;;5012870;28;20413;-63
2021/10/28 07:35:31;;;;;;;45.07;32.53;;;9.80;99.90;;;;;;5012837;28;20496;-63
2021/10/28 07:57:43;;;;;;;39.63;25.17;;;10.10;99.90;;;;;;5012231;28;20473;-64
2021/10/28 08:17:35;;;;;;;26.83;22.77;;;10.50;99.90;;;;;;5006235;28;20485;-63
2021/10/28 08:20:04;;;;;;;30.93;23.83;;;10.60;99.90;;;;;;5011694;28;20508;-63
2021/10/28 08:22:35;;;;;;;28.93;23.33;;;10.60;99.90;;;;;;5011827;28;20450;-63
2021/10/28 08:30:30;;;;;;;29.27;23.27;;;10.70;99.90;;;;;;5012044;28;20553;-63
2021/10/28 08:32:58;;;;;;;32.50;23.37;;;10.80;99.90;;;;;;5012073;28;20441;-63
2021/10/28 08:35:25;;;;;;;29.00;24.83;;;10.90;99.90;;;;;;5011927;28;20958;-63
2021/10/28 08:37:55;;;;;;;27.73;23.33;;;10.90;99.90;;;;;;5011804;28;20482;-63
2021/10/28 08:40:22;;;;;;;26.90;22.10;;;11.00;99.90;;;;;;5011702;28;20465;-63
2021/10/28 08:42:49;;;;;;;25.80;21.80;;;11.10;99.90;;;;;;5011751;28;20508;-63
2021/10/28 08:45:18;;;;;;;25.47;22.80;;;11.20;99.90;;;;;;5011766;28;20548;-63
2021/10/28 08:47:50;;;;;;;26.00;22.30;;;11.30;99.90;;;;;;5011603;28;20452;-63
2021/10/28 08:50:24;;;;;;;26.27;23.63;;;11.40;99.90;;;;;;5011787;28;20466;-63
2021/10/28 08:55:39;;;;;;;25.50;23.07;;;11.50;99.90;;;;;;5011790;28;20795;-63
2021/10/28 09:26:25;;;;;;;23.43;21.50;;;12.60;99.90;;;;;;5011482;28;20463;-63
2021/10/28 09:29:02;;;;;;;25.70;23.17;;;12.70;99.90;;;;;;5010961;28;20454;-63
2021/10/28 09:31:32;;;;;;;26.17;23.77;;;12.80;99.90;;;;;;5011395;28;20453;-63
2021/10/28 09:34:09;;;;;;;27.50;24.80;;;12.90;99.90;;;;;;5014613;28;20446;-63
2021/10/28 09:45:30;;;;;;;24.53;22.43;;;13.50;99.90;;;;;;5014817;28;20464;-63
2021/10/28 09:48:07;;;;;;;25.10;23.20;;;13.70;99.90;;;;;;5014182;28;20450;-63
2021/10/28 09:50:49;;;;;;;24.70;22.70;;;13.80;99.90;;;;;;5014504;28;20466;-63
2021/10/28 09:53:24;;;;;;;27.00;24.83;;;13.80;99.90;;;;;;5014578;28;20445;-63
2021/10/28 09:58:37;;;;;;;27.13;25.13;;;14.10;99.90;;;;;;5014319;28;20476;-63
2021/10/28 10:01:07;;;;;;;29.57;27.07;;;14.20;99.90;;;;;;5014422;28;20466;-63
2021/10/28 10:03:37;;;;;;;31.37;28.67;;;14.20;99.90;;;;;;5014431;28;20442;-63
2021/10/28 10:06:05;;;;;;;27.97;25.90;;;14.40;99.90;;;;;;5014477;28;20536;-63
2021/10/28 10:08:33;;;;;;;28.67;26.37;;;14.50;99.90;;;;;;5014278;28;20442;-63
2021/10/28 10:11:02;;;;;;;27.73;25.83;;;14.60;99.90;;;;;;5019080;28;20477;-63
2021/10/28 10:13:30;;;;;;;26.93;24.87;;;14.80;99.90;;;;;;5024035;28;20446;-63
2021/10/28 10:15:58;;;;;;;29.13;26.93;;;14.90;99.90;;;;;;5014120;28;20450;-63
2021/10/28 10:18:25;;;;;;;28.43;26.33;;;15.10;99.90;;;;;;5013934;28;20489;-63
2021/10/28 10:20:55;;;;;;;26.70;25.00;;;15.30;99.90;;;;;;5013961;28;20474;-63
2021/10/28 10:23:34;;;;;;;27.67;25.80;;;15.50;99.90;;;;;;5013000;28;20492;-63
2021/10/28 11:30:16;;;;;;;29.53;27.77;;;25.50;60.00;;;;;;5012725;28;20530;-64
2021/10/28 12:14:55;;;;;;;27.20;25.70;;;26.20;50.50;;;;;;5071507;28;20431;-63
2021/10/28 12:17:42;;;;;;;27.87;26.50;;;26.40;50.10;;;;;;5071538;28;20450;-62
2021/10/28 12:20:32;;;;;;;27.70;26.20;;;26.50;49.00;;;;;;5071602;28;20471;-62
2021/10/28 12:45:55;;;;;;;26.07;24.83;;;26.00;50.00;;;;;;5067075;28;20993;-63
2021/10/28 12:48:56;;;;;;;27.23;25.83;;;25.30;50.70;;;;;;5070866;28;20793;-62
2021/10/28 12:51:39;;;;;;;26.77;25.50;;;24.70;51.60;;;;;;5070750;28;20964;-62
2021/10/28 13:03:24;;;;;;;27.53;26.13;;;24.60;53.20;;;;;;4994624;28;20483;-63
2021/10/28 13:06:17;;;;;;;25.20;24.03;;;24.80;52.80;;;;;;5070681;28;20447;-62
2021/10/28 13:53:30;;;;;;;26.90;25.60;;;32.50;38.90;;;;;;5011725;28;20795;-63
2021/10/28 13:56:18;;;;;;;27.13;25.73;;;32.90;38.10;;;;;;5076220;28;20454;-63
2021/10/28 14:23:46;;;;;;;28.30;26.73;;;21.70;55.30;;;;;;5093647;28;20504;-63
2021/10/28 15:02:34;;;;;;;28.17;26.63;;;18.00;94.70;;;;;;5085810;28;20433;-61
2021/10/28 15:29:50;;;;;;;28.83;26.77;;;16.30;99.90;;;;;;5091421;28;20450;-63
2021/10/28 15:35:12;;;;;;;27.43;25.83;;;16.00;99.90;;;;;;5092485;28;20418;-64
2021/10/28 15:40:46;;;;;;;27.10;25.50;;;15.80;99.90;;;;;;5009800;28;20457;-62
2021/10/28 15:54:42;;;;;;;27.70;25.90;;;15.20;99.90;;;;;;5071229;28;20950;-63
2021/10/28 15:57:14;;;;;;;29.47;27.37;;;15.10;99.90;;;;;;5092122;28;20477;-62
2021/10/28 16:21:54;;;;;;;27.57;25.50;;;14.00;99.90;;;;;;5091868;28;20521;-61
2021/10/28 16:24:24;;;;;;;27.50;25.53;;;13.90;99.90;;;;;;5091714;28;20486;-62
2021/10/28 16:26:51;;;;;;;27.03;24.87;;;13.80;99.90;;;;;;5091784;28;20450;-62
2021/10/28 16:29:18;;;;;;;26.73;24.63;;;13.70;99.90;;;;;;5091547;28;20491;-63
2021/10/28 16:31:47;;;;;;;27.80;25.37;;;13.60;99.90;;;;;;5091612;28;20438;-63
2021/10/28 16:34:15;;;;;;;28.80;26.40;;;13.60;99.90;;;;;;5091801;28;20453;-61
2021/10/28 16:36:43;;;;;;;27.60;25.40;;;13.50;99.90;;;;;;5091602;28;20455;-63
2021/10/28 16:39:12;;;;;;;28.97;26.70;;;13.40;99.90;;;;;;5091399;28;20478;-63
2021/10/28 16:41:40;;;;;;;29.33;27.03;;;13.30;99.90;;;;;;5093552;28;20438;-63
2021/10/28 16:44:07;;;;;;;28.43;25.93;;;13.30;99.90;;;;;;5095792;28;20927;-63
2021/10/28 16:46:35;;;;;;;27.90;25.70;;;13.20;99.90;;;;;;5095700;28;20503;-63
2021/10/28 16:49:03;;;;;;;30.10;27.30;;;13.10;99.90;;;;;;5095461;28;20804;-62
2021/10/28 16:51:30;;;;;;;28.97;26.17;;;13.10;99.90;;;;;;5095475;28;20458;-61
2021/10/28 16:53:56;;;;;;;29.80;26.90;;;13.00;99.90;;;;;;5095664;28;20446;-61
2021/10/28 16:56:23;;;;;;;26.30;24.10;;;12.90;99.90;;;;;;5095617;28;20446;-62
2021/10/28 16:58:50;;;;;;;28.87;26.37;;;12.90;99.90;;;;;;5095182;28;20486;-63
2021/10/28 17:01:17;;;;;;;28.37;26.03;;;12.90;99.90;;;;;;5095293;28;20462;-62
2021/10/28 17:03:44;;;;;;;29.70;27.30;;;12.80;99.90;;;;;;5095375;28;20438;-62
2021/10/28 17:06:15;;;;;;;28.17;25.50;;;12.80;99.90;;;;;;5095523;28;20499;-62
2021/10/28 17:08:42;;;;;;;28.90;26.30;;;12.70;99.90;;;;;;5095110;28;20438;-62
2021/10/28 17:11:09;;;;;;;28.50;26.17;;;12.70;99.90;;;;;;5095065;28;20482;-63
2021/10/28 17:13:37;;;;;;;29.50;26.77;;;12.60;99.90;;;;;;5095546;28;20477;-63
2021/10/28 17:16:04;;;;;;;28.50;26.10;;;12.60;99.90;;;;;;5095429;28;20453;-62
2021/10/28 17:18:31;;;;;;;28.37;26.00;;;12.50;99.90;;;;;;5094953;28;20489;-63
2021/10/28 17:21:03;;;;;;;31.03;28.43;;;12.40;99.90;;;;;;5095238;28;20478;-62
2021/10/28 17:23:33;;;;;;;29.93;27.07;;;12.40;99.90;;;;;;5095093;28;20453;-63
2021/10/28 17:26:03;;;;;;;28.47;25.97;;;12.30;99.90;;;;;;5094838;28;20446;-62
2021/10/28 17:28:30;;;;;;;29.47;27.00;;;12.20;99.90;;;;;;5094831;28;20881;-63
2021/10/28 17:30:56;;;;;;;28.43;25.83;;;12.20;99.90;;;;;;5094783;28;20467;-63
2021/10/28 17:33:23;;;;;;;28.23;25.60;;;12.10;99.90;;;;;;5094896;28;20445;-62
2021/10/28 17:35:50;;;;;;;29.47;26.60;;;12.10;99.90;;;;;;5094974;28;20946;-63
2021/10/28 17:38:16;;;;;;;29.43;26.00;;;12.00;99.90;;;;;;5094483;28;20469;-62
2021/10/28 17:40:46;;;;;;;30.10;27.60;;;12.00;99.90;;;;;;5094507;28;20473;-63
2021/10/28 17:43:14;;;;;;;32.63;29.20;;;11.90;99.90;;;;;;5094712;28;20449;-63
2021/10/28 17:45:41;;;;;;;29.47;26.77;;;11.90;99.90;;;;;;5094549;28;20464;-62
2021/10/28 17:48:08;;;;;;;30.07;27.37;;;11.80;99.90;;;;;;5094501;28;20446;-61
2021/10/28 17:50:36;;;;;;;31.80;28.80;;;11.80;99.90;;;;;;5094468;28;20467;-61
2021/10/28 17:53:03;;;;;;;31.80;28.70;;;11.70;99.90;;;;;;5093676;28;20473;-63
2021/10/28 17:55:30;;;;;;;30.80;27.63;;;11.70;99.90;;;;;;5094435;28;20931;-62
2021/10/28 17:57:58;;;;;;;32.93;29.60;;;11.60;99.90;;;;;;5094184;28;20449;-63
2021/10/28 18:00:25;;;;;;;31.20;28.17;;;11.50;99.90;;;;;;5094183;28;20481;-63
2021/10/28 18:02:54;;;;;;;29.73;26.97;;;11.50;99.90;;;;;;5094365;28;20449;-63
2021/10/28 18:05:21;;;;;;;25.87;23.60;;;11.50;99.90;;;;;;5094364;28;21008;-63
2021/10/28 18:07:49;;;;;;;31.40;28.30;;;11.40;99.90;;;;;;5093875;28;20878;-63
2021/10/28 18:10:16;;;;;;;31.20;28.17;;;11.40;99.90;;;;;;5093963;28;20478;-61
2021/10/28 18:12:43;;;;;;;31.03;27.10;;;11.30;99.90;;;;;;5094124;28;20453;-63
2021/10/28 18:15:12;;;;;;;30.20;27.20;;;11.30;99.90;;;;;;5094107;28;20446;-63
2021/10/28 18:17:39;;;;;;;31.77;28.57;;;11.20;99.90;;;;;;5094066;28;20927;-62
2021/10/28 18:20:08;;;;;;;32.50;29.30;;;11.10;99.90;;;;;;5093569;28;20493;-63
2021/10/28 18:22:37;;;;;;;28.20;25.50;;;11.10;99.90;;;;;;5110701;22;20438;-66
2021/10/28 18:25:05;;;;;;;31.80;28.40;;;11.10;99.90;;;;;;5092931;28;20454;-67
2021/10/28 18:27:32;;;;;;;30.73;27.60;;;11.00;99.90;;;;;;5093802;28;20446;-67
2021/10/28 18:30:00;;;;;;;32.70;29.00;;;10.90;99.90;;;;;;5093392;28;20446;-66
2021/10/28 18:32:29;;;;;;;32.47;28.10;;;10.90;99.90;;;;;;5093646;28;20446;-66
2021/10/28 18:34:56;;;;;;;27.47;24.73;;;10.90;99.90;;;;;;5093485;28;20497;-66
2021/10/28 18:37:23;;;;;;;32.43;29.17;;;10.80;99.90;;;;;;5093325;28;20453;-66
2021/10/28 18:39:51;;;;;;;35.27;31.73;;;10.80;99.90;;;;;;5093182;28;20888;-67
2021/10/28 18:42:18;;;;;;;37.73;33.90;;;10.70;99.90;;;;;;5093274;28;20454;-67
2021/10/28 18:44:45;;;;;;;36.20;32.60;;;10.70;99.90;;;;;;5093234;28;20462;-67
2021/10/28 18:47:11;;;;;;;26.73;24.27;;;10.70;99.90;;;;;;5093264;28;20785;-67
2021/10/28 18:49:40;;;;;;;33.47;26.77;;;10.70;99.90;;;;;;5093136;28;20441;-67
2021/10/28 18:52:07;;;;;;;30.80;26.97;;;10.60;99.90;;;;;;5093402;28;20460;-67
2021/10/28 18:54:34;;;;;;;32.17;28.27;;;10.60;99.90;;;;;;5093080;28;20501;-68
2021/10/28 18:57:00;;;;;;;30.93;26.03;;;10.60;99.90;;;;;;5093490;28;20499;-67
2021/10/28 18:59:27;;;;;;;28.03;24.37;;;10.50;99.90;;;;;;5092897;28;20477;-67
2021/10/28 19:01:56;;;;;;;34.07;29.53;;;10.50;99.90;;;;;;5093063;28;20446;-66
2021/10/28 19:04:22;;;;;;;31.50;28.10;;;10.50;99.90;;;;;;5091978;28;20978;-65
2021/10/28 19:06:51;;;;;;;32.27;28.23;;;10.50;99.90;;;;;;5091343;28;20443;-65
2021/10/28 19:09:18;;;;;;;32.67;27.23;;;10.50;99.90;;;;;;5092554;28;20507;-66
2021/10/28 19:11:45;;;;;;;34.77;27.33;;;10.40;99.90;;;;;;5092912;28;20438;-66
2021/10/28 19:14:13;;;;;;;32.40;26.43;;;10.40;99.90;;;;;;5092941;28;20543;-66
2021/10/28 19:16:39;;;;;;;34.63;29.47;;;10.40;99.90;;;;;;5092498;28;20458;-66
2021/10/28 19:19:07;;;;;;;30.20;27.20;;;10.30;99.90;;;;;;5092506;28;20478;-66
2021/10/28 19:21:34;;;;;;;29.07;25.77;;;10.30;99.90;;;;;;5092708;28;20485;-66
2021/10/28 19:24:02;;;;;;;57.47;32.93;;;10.20;99.90;;;;;;5092596;28;20478;-66
2021/10/28 19:26:28;;;;;;;31.33;27.73;;;10.20;99.90;;;;;;5092558;28;20450;-65
2021/10/28 19:28:57;;;;;;;33.07;27.77;;;10.20;99.90;;;;;;5092356;28;20442;-66
2021/10/28 19:31:26;;;;;;;32.60;27.20;;;10.20;99.90;;;;;;5092381;28;20446;-66
2021/10/28 19:33:55;;;;;;;38.80;31.00;;;10.10;99.90;;;;;;5092419;28;20831;-67
2021/10/28 19:36:29;;;;;;;29.57;25.77;;;10.10;99.90;;;;;;5092071;28;20533;-69
2021/10/28 19:47:13;;;;;;;27.70;24.43;;;10.00;99.90;;;;;;5082242;28;20512;-66
2021/10/28 19:49:42;;;;;;;31.03;27.60;;;10.00;99.90;;;;;;5091937;28;20453;-67
2021/10/28 19:52:11;;;;;;;37.17;26.77;;;10.00;99.90;;;;;;5092202;28;20442;-68
2021/10/28 19:54:39;;;;;;;33.60;25.77;;;10.00;99.90;;;;;;5091437;28;20470;-68
2021/10/28 19:57:12;;;;;;;33.13;28.77;;;9.90;99.90;;;;;;5091616;28;20529;-68
2021/10/28 19:59:44;;;;;;;29.80;26.57;;;9.90;99.90;;;;;;5091660;28;20474;-68
2021/10/28 20:02:16;;;;;;;31.90;27.13;;;9.80;99.90;;;;;;5091987;28;20443;-68
2021/10/28 20:07:43;;;;;;;35.53;31.23;;;9.80;99.90;;;;;;5070867;28;20439;-67
2021/10/28 20:13:13;;;;;;;35.47;28.97;;;9.80;99.90;;;;;;5092006;28;20792;-67
2021/10/28 20:21:20;;;;;;;31.90;26.57;;;9.70;99.90;;;;;;5084318;28;20493;-67
2021/10/28 20:23:46;;;;;;;40.10;33.00;;;9.70;99.90;;;;;;5091579;28;20485;-67
2021/10/28 20:26:14;;;;;;;32.90;26.27;;;9.70;99.90;;;;;;5091430;28;20442;-67
2021/10/28 20:28:44;;;;;;;36.37;26.30;;;9.60;99.90;;;;;;5091209;28;20937;-68
2021/10/28 20:31:13;;;;;;;32.77;26.17;;;9.60;99.90;;;;;;5091632;28;20449;-67
2021/10/28 20:33:44;;;;;;;27.67;24.87;;;9.60;99.90;;;;;;5091330;28;20470;-67
2021/10/28 20:38:52;;;;;;;35.93;31.77;;;9.60;99.90;;;;;;5088363;28;20862;-68
2021/10/28 20:41:19;;;;;;;40.03;27.80;;;9.60;99.90;;;;;;5091534;28;20488;-66
2021/10/28 20:43:47;;;;;;;28.17;25.10;;;9.60;99.90;;;;;;5091552;28;20471;-65
2021/10/28 20:46:20;;;;;;;28.83;22.73;;;9.60;99.90;;;;;;5091436;28;20450;-65